sensor_id;sensor_type;location;lat;lon;timestamp;pressure;altitude;pressure_sealevel;temperature;humidity
28628;BME280;15815;46.760;19.604;2022-09-12T00:01:24;100089.84;;;16.55;76.31
28628;BME280;15815;46.760;19.604;2022-09-12T00:03:55;100091.91;;;16.54;76.46
28628;BME280;15815;46.760;19.604;2022-09-12T00:06:31;100092.34;;;16.53;76.25
28628;BME280;15815;46.760;19.604;2022-09-12T00:08:59;100080.31;;;16.49;76.59
28628;BME280;15815;46.760;19.604;2022-09-12T00:11:26;100075.31;;;16.53;76.69
28628;BME280;15815;46.760;19.604;2022-09-12T00:13:58;100080.66;;;16.51;76.63
28628;BME280;15815;46.760;19.604;2022-09-12T00:16:25;100076.22;;;16.50;76.93
28628;BME280;15815;46.760;19.604;2022-09-12T00:18:51;100083.16;;;16.49;76.57
28628;BME280;15815;46.760;19.604;2022-09-12T00:21:18;100079.53;;;16.48;76.84
28628;BME280;15815;46.760;19.604;2022-09-12T00:23:45;100083.16;;;16.49;76.65
28628;BME280;15815;46.760;19.604;2022-09-12T00:26:12;100073.06;;;16.48;77.16
28628;BME280;15815;46.760;19.604;2022-09-12T00:28:38;100082.09;;;16.43;77.39
28628;BME280;15815;46.760;19.604;2022-09-12T00:31:06;100079.81;;;16.37;77.77
28628;BME280;15815;46.760;19.604;2022-09-12T00:33:32;100076.63;;;16.35;78.00
28628;BME280;15815;46.760;19.604;2022-09-12T00:35:58;100079.94;;;16.34;77.86
28628;BME280;15815;46.760;19.604;2022-09-12T00:38:23;100080.38;;;16.32;78.21
28628;BME280;15815;46.760;19.604;2022-09-12T00:40:48;100080.03;;;16.30;78.33
28628;BME280;15815;46.760;19.604;2022-09-12T00:43:37;100089.00;;;16.29;78.36
28628;BME280;15815;46.760;19.604;2022-09-12T00:46:19;100086.59;;;16.27;78.55
28628;BME280;15815;46.760;19.604;2022-09-12T00:48:55;100087.84;;;16.26;78.70
28628;BME280;15815;46.760;19.604;2022-09-12T00:51:22;100082.75;;;16.21;78.99
28628;BME280;15815;46.760;19.604;2022-09-12T00:53:50;100079.91;;;16.21;79.24
28628;BME280;15815;46.760;19.604;2022-09-12T00:56:19;100083.97;;;16.20;79.17
28628;BME280;15815;46.760;19.604;2022-09-12T00:59:00;100082.75;;;16.21;79.13
28628;BME280;15815;46.760;19.604;2022-09-12T01:01:26;100083.63;;;16.18;79.38
28628;BME280;15815;46.760;19.604;2022-09-12T01:03:52;100077.97;;;16.18;79.28
28628;BME280;15815;46.760;19.604;2022-09-12T01:06:20;100073.88;;;16.19;79.44
28628;BME280;15815;46.760;19.604;2022-09-12T01:08:48;100077.19;;;16.18;79.58
28628;BME280;15815;46.760;19.604;2022-09-12T01:11:15;100081.25;;;16.17;79.44
28628;BME280;15815;46.760;19.604;2022-09-12T01:13:43;100076.38;;;16.17;79.47
28628;BME280;15815;46.760;19.604;2022-09-12T01:16:09;100076.38;;;16.17;79.46
28628;BME280;15815;46.760;19.604;2022-09-12T01:24:27;100081.25;;;16.17;79.21
28628;BME280;15815;46.760;19.604;2022-09-12T01:39:01;100079.75;;;16.12;78.87
28628;BME280;15815;46.760;19.604;2022-09-12T01:44:22;100087.91;;;16.10;79.34
28628;BME280;15815;46.760;19.604;2022-09-12T01:46:53;100084.03;;;16.04;78.94
28628;BME280;15815;46.760;19.604;2022-09-12T01:49:32;100080.06;;;16.01;78.96
28628;BME280;15815;46.760;19.604;2022-09-12T01:52:20;100079.34;;;15.97;78.96
28628;BME280;15815;46.760;19.604;2022-09-12T01:55:11;100087.50;;;15.95;79.04
28628;BME280;15815;46.760;19.604;2022-09-12T01:57:44;100089.22;;;15.93;79.62
28628;BME280;15815;46.760;19.604;2022-09-12T02:00:12;100089.22;;;15.93;79.22
28628;BME280;15815;46.760;19.604;2022-09-12T02:02:48;100083.88;;;15.95;79.48
28628;BME280;15815;46.760;19.604;2022-09-12T02:05:35;100080.34;;;15.91;79.73
28628;BME280;15815;46.760;19.604;2022-09-12T02:08:11;100082.03;;;15.88;79.69
28628;BME280;15815;46.760;19.604;2022-09-12T02:10:46;100086.19;;;15.84;79.71
28628;BME280;15815;46.760;19.604;2022-09-12T02:13:21;100079.03;;;15.79;79.76
28628;BME280;15815;46.760;19.604;2022-09-12T02:15:54;100080.72;;;15.76;80.00
28628;BME280;15815;46.760;19.604;2022-09-12T02:18:23;100080.84;;;15.73;80.29
28628;BME280;15815;46.760;19.604;2022-09-12T02:20:52;100081.38;;;15.68;80.21
28628;BME280;15815;46.760;19.604;2022-09-12T02:23:25;100084.31;;;15.64;80.01
28628;BME280;15815;46.760;19.604;2022-09-12T02:25:55;100089.19;;;15.64;80.35
28628;BME280;15815;46.760;19.604;2022-09-12T02:28:29;100089.69;;;15.59;80.61
28628;BME280;15815;46.760;19.604;2022-09-12T02:36:14;100094.72;;;15.51;81.28
28628;BME280;15815;46.760;19.604;2022-09-12T02:38:47;100095.16;;;15.50;81.26
28628;BME280;15815;46.760;19.604;2022-09-12T02:41:15;100100.47;;;15.48;81.97
28628;BME280;15815;46.760;19.604;2022-09-12T02:43:41;100094.47;;;15.45;81.40
28628;BME280;15815;46.760;19.604;2022-09-12T02:46:11;100096.16;;;15.43;81.50
28628;BME280;15815;46.760;19.604;2022-09-12T02:48:39;100096.69;;;15.38;81.85
28628;BME280;15815;46.760;19.604;2022-09-12T02:51:07;100093.50;;;15.36;81.99
28628;BME280;15815;46.760;19.604;2022-09-12T02:53:33;100088.34;;;15.31;81.89
28628;BME280;15815;46.760;19.604;2022-09-12T02:55:58;100100.91;;;15.30;82.63
28628;BME280;15815;46.760;19.604;2022-09-12T02:58:26;100101.81;;;15.27;82.81
28628;BME280;15815;46.760;19.604;2022-09-12T03:06:31;100094.19;;;15.24;82.62
28628;BME280;15815;46.760;19.604;2022-09-12T03:09:16;100097.91;;;15.21;82.63
28628;BME280;15815;46.760;19.604;2022-09-12T03:14:28;100102.59;;;15.11;82.79
28628;BME280;15815;46.760;19.604;2022-09-12T03:17:08;100108.72;;;15.09;82.73
28628;BME280;15815;46.760;19.604;2022-09-12T03:22:16;100110.81;;;15.05;83.40
28628;BME280;15815;46.760;19.604;2022-09-12T03:27:16;100102.03;;;15.00;83.05
28628;BME280;15815;46.760;19.604;2022-09-12T03:29:44;100104.97;;;14.96;83.07
28628;BME280;15815;46.760;19.604;2022-09-12T03:32:12;100118.31;;;14.96;83.71
28628;BME280;15815;46.760;19.604;2022-09-12T03:34:37;100116.38;;;14.93;84.08
28628;BME280;15815;46.760;19.604;2022-09-12T03:37:03;100117.16;;;14.93;84.13
28628;BME280;15815;46.760;19.604;2022-09-12T03:39:28;100121.59;;;14.94;84.13
28628;BME280;15815;46.760;19.604;2022-09-12T03:41:54;100128.84;;;14.95;84.47
28628;BME280;15815;46.760;19.604;2022-09-12T03:44:20;100123.53;;;14.97;84.60
28628;BME280;15815;46.760;19.604;2022-09-12T03:46:46;100131.22;;;14.97;84.49
28628;BME280;15815;46.760;19.604;2022-09-12T03:49:12;100127.25;;;14.94;84.09
28628;BME280;15815;46.760;19.604;2022-09-12T03:51:38;100124.78;;;14.96;84.70
28628;BME280;15815;46.760;19.604;2022-09-12T03:54:04;100121.94;;;14.96;84.39
28628;BME280;15815;46.760;19.604;2022-09-12T03:56:29;100134.50;;;14.95;84.33
28628;BME280;15815;46.760;19.604;2022-09-12T03:58:55;100127.25;;;14.94;84.74
28628;BME280;15815;46.760;19.604;2022-09-12T04:01:21;100128.84;;;14.95;84.57
28628;BME280;15815;46.760;19.604;2022-09-12T04:03:48;100135.03;;;14.90;84.27
28628;BME280;15815;46.760;19.604;2022-09-12T04:06:16;100129.00;;;14.88;84.21
28628;BME280;15815;46.760;19.604;2022-09-12T04:08:43;100137.56;;;14.84;84.42
28628;BME280;15815;46.760;19.604;2022-09-12T04:11:13;100142.88;;;14.82;84.67
28628;BME280;15815;46.760;19.604;2022-09-12T04:13:39;100142.94;;;14.79;84.35
28628;BME280;15815;46.760;19.604;2022-09-12T04:16:05;100138.94;;;14.76;84.51
28628;BME280;15815;46.760;19.604;2022-09-12T04:18:32;100132.13;;;14.74;84.20
28628;BME280;15815;46.760;19.604;2022-09-12T04:20:58;100138.22;;;14.72;84.34
28628;BME280;15815;46.760;19.604;2022-09-12T04:23:23;100137.44;;;14.72;84.82
28628;BME280;15815;46.760;19.604;2022-09-12T04:25:56;100141.50;;;14.71;83.94
28628;BME280;15815;46.760;19.604;2022-09-12T04:28:22;100140.78;;;14.67;84.95
28628;BME280;15815;46.760;19.604;2022-09-12T04:30:47;100145.66;;;14.66;85.00
28628;BME280;15815;46.760;19.604;2022-09-12T04:33:13;100144.84;;;14.66;85.24
28628;BME280;15815;46.760;19.604;2022-09-12T04:35:39;100140.00;;;14.66;85.44
28628;BME280;15815;46.760;19.604;2022-09-12T04:38:05;100151.22;;;14.70;86.21
28628;BME280;15815;46.760;19.604;2022-09-12T04:40:31;100151.22;;;14.70;85.94
28628;BME280;15815;46.760;19.604;2022-09-12T04:42:57;100151.59;;;14.72;85.85
28628;BME280;15815;46.760;19.604;2022-09-12T04:45:23;100155.13;;;14.76;86.32
28628;BME280;15815;46.760;19.604;2022-09-12T04:47:48;100156.72;;;14.77;85.68
28628;BME280;15815;46.760;19.604;2022-09-12T04:50:13;100153.03;;;14.80;85.44
28628;BME280;15815;46.760;19.604;2022-09-12T04:52:39;100160.66;;;14.83;85.82
28628;BME280;15815;46.760;19.604;2022-09-12T04:55:06;100161.00;;;14.85;86.03
28628;BME280;15815;46.760;19.604;2022-09-12T04:57:31;100170.22;;;14.89;85.95
28628;BME280;15815;46.760;19.604;2022-09-12T04:59:56;100166.16;;;14.90;85.89
28628;BME280;15815;46.760;19.604;2022-09-12T05:02:23;100168.47;;;14.95;85.66
28628;BME280;15815;46.760;19.604;2022-09-12T05:04:48;100169.53;;;15.01;85.81
28628;BME280;15815;46.760;19.604;2022-09-12T05:07:17;100173.47;;;15.07;85.54
28628;BME280;15815;46.760;19.604;2022-09-12T05:09:44;100174.00;;;15.19;85.37
28628;BME280;15815;46.760;19.604;2022-09-12T05:12:10;100180.72;;;15.25;85.32
28628;BME280;15815;46.760;19.604;2022-09-12T05:14:35;100169.31;;;15.28;84.77
28628;BME280;15815;46.760;19.604;2022-09-12T05:17:02;100181.78;;;15.31;84.19
28628;BME280;15815;46.760;19.604;2022-09-12T05:19:29;100188.53;;;15.37;84.11
28628;BME280;15815;46.760;19.604;2022-09-12T05:21:54;100197.75;;;15.41;83.61
28628;BME280;15815;46.760;19.604;2022-09-12T05:24:20;100195.63;;;15.45;83.63
28628;BME280;15815;46.760;19.604;2022-09-12T05:26:46;100198.72;;;15.51;83.20
28628;BME280;15815;46.760;19.604;2022-09-12T05:29:11;100193.31;;;15.56;83.31
28628;BME280;15815;46.760;19.604;2022-09-12T05:31:37;100205.25;;;15.67;83.85
28628;BME280;15815;46.760;19.604;2022-09-12T05:34:03;100210.53;;;15.82;83.75
28628;BME280;15815;46.760;19.604;2022-09-12T05:36:31;100212.94;;;15.99;82.66
28628;BME280;15815;46.760;19.604;2022-09-12T05:38:58;100212.03;;;16.19;82.38
28628;BME280;15815;46.760;19.604;2022-09-12T05:41:26;100215.06;;;16.41;81.78
28628;BME280;15815;46.760;19.604;2022-09-12T05:43:56;100211.13;;;16.67;80.20
28628;BME280;15815;46.760;19.604;2022-09-12T05:46:24;100204.25;;;16.93;78.44
28628;BME280;15815;46.760;19.604;2022-09-12T05:48:50;100215.31;;;17.17;77.83
28628;BME280;15815;46.760;19.604;2022-09-12T05:51:19;100215.59;;;17.35;76.38
28628;BME280;15815;46.760;19.604;2022-09-12T05:53:55;100206.47;;;17.53;75.08
28628;BME280;15815;46.760;19.604;2022-09-12T05:56:23;100216.19;;;17.81;74.38
28628;BME280;15815;46.760;19.604;2022-09-12T05:58:58;100196.91;;;18.10;72.26
28628;BME280;15815;46.760;19.604;2022-09-12T06:01:24;100200.47;;;18.23;70.59
28628;BME280;15815;46.760;19.604;2022-09-12T06:03:51;100203.06;;;18.31;69.92
28628;BME280;15815;46.760;19.604;2022-09-12T06:06:20;100198.38;;;18.71;68.45
28628;BME280;15815;46.760;19.604;2022-09-12T06:11:40;100193.22;;;18.79;68.37
28628;BME280;15815;46.760;19.604;2022-09-12T06:14:06;100194.94;;;18.76;68.21
28628;BME280;15815;46.760;19.604;2022-09-12T06:16:33;100199.75;;;18.89;68.02
28628;BME280;15815;46.760;19.604;2022-09-12T06:19:13;100202.13;;;19.12;67.41
28628;BME280;15815;46.760;19.604;2022-09-12T06:21:39;100205.19;;;19.18;66.80
28628;BME280;15815;46.760;19.604;2022-09-12T06:24:04;100212.66;;;19.55;66.24
28628;BME280;15815;46.760;19.604;2022-09-12T06:26:31;100207.38;;;19.85;65.12
28628;BME280;15815;46.760;19.604;2022-09-12T06:28:59;100217.63;;;20.31;63.18
28628;BME280;15815;46.760;19.604;2022-09-12T06:31:27;100208.22;;;21.98;58.42
28628;BME280;15815;46.760;19.604;2022-09-12T06:33:54;100204.41;;;27.50;45.40
28628;BME280;15815;46.760;19.604;2022-09-12T06:36:28;100208.59;;;32.07;35.87
28628;BME280;15815;46.760;19.604;2022-09-12T06:38:56;100209.03;;;34.07;32.40
28628;BME280;15815;46.760;19.604;2022-09-12T06:41:23;100214.00;;;34.92;30.38
28628;BME280;15815;46.760;19.604;2022-09-12T06:43:49;100225.84;;;36.14;28.03
28628;BME280;15815;46.760;19.604;2022-09-12T06:46:15;100237.78;;;37.35;28.88
28628;BME280;15815;46.760;19.604;2022-09-12T06:48:40;100230.50;;;39.22;26.17
28628;BME280;15815;46.760;19.604;2022-09-12T06:51:09;100229.06;;;40.13;23.83
28628;BME280;15815;46.760;19.604;2022-09-12T06:53:35;100229.38;;;40.17;23.67
28628;BME280;15815;46.760;19.604;2022-09-12T06:56:05;100238.72;;;41.20;22.41
28628;BME280;15815;46.760;19.604;2022-09-12T06:58:32;100248.19;;;41.79;23.19
28628;BME280;15815;46.760;19.604;2022-09-12T07:01:03;100243.06;;;34.69;28.56
28628;BME280;15815;46.760;19.604;2022-09-12T07:03:29;100240.00;;;40.88;22.54
28628;BME280;15815;46.760;19.604;2022-09-12T07:05:54;100238.53;;;42.40;22.13
28628;BME280;15815;46.760;19.604;2022-09-12T07:08:20;100243.91;;;43.08;20.32
28628;BME280;15815;46.760;19.604;2022-09-12T07:10:45;100247.09;;;43.33;21.43
28628;BME280;15815;46.760;19.604;2022-09-12T07:13:10;100251.22;;;43.40;19.40
28628;BME280;15815;46.760;19.604;2022-09-12T07:15:35;100251.75;;;44.53;19.32
28628;BME280;15815;46.760;19.604;2022-09-12T07:18:02;100252.88;;;45.48;18.66
28628;BME280;15815;46.760;19.604;2022-09-12T07:20:27;100264.75;;;43.66;19.53
28628;BME280;15815;46.760;19.604;2022-09-12T07:22:53;100256.78;;;44.39;18.46
28628;BME280;15815;46.760;19.604;2022-09-12T07:25:18;100250.13;;;43.68;19.20
28628;BME280;15815;46.760;19.604;2022-09-12T07:27:43;100251.38;;;45.60;17.64
28628;BME280;15815;46.760;19.604;2022-09-12T07:30:09;100263.16;;;45.72;17.03
28628;BME280;15815;46.760;19.604;2022-09-12T07:32:34;100258.28;;;46.32;17.14
28628;BME280;15815;46.760;19.604;2022-09-12T07:34:59;100253.81;;;46.88;16.50
28628;BME280;15815;46.760;19.604;2022-09-12T07:37:25;100263.22;;;47.88;16.53
28628;BME280;15815;46.760;19.604;2022-09-12T07:39:50;100265.88;;;48.29;15.14
28628;BME280;15815;46.760;19.604;2022-09-12T07:42:15;100270.81;;;47.01;16.18
28628;BME280;15815;46.760;19.604;2022-09-12T07:44:41;100262.06;;;48.27;16.31
28628;BME280;15815;46.760;19.604;2022-09-12T07:47:06;100265.78;;;47.49;15.98
28628;BME280;15815;46.760;19.604;2022-09-12T07:49:32;100264.47;;;47.22;15.74
28628;BME280;15815;46.760;19.604;2022-09-12T07:51:57;100267.53;;;47.24;15.71
28628;BME280;15815;46.760;19.604;2022-09-12T07:54:22;100266.56;;;47.65;15.33
28628;BME280;15815;46.760;19.604;2022-09-12T07:56:48;100264.34;;;47.50;16.16
28628;BME280;15815;46.760;19.604;2022-09-12T07:59:13;100274.63;;;47.17;16.33
28628;BME280;15815;46.760;19.604;2022-09-12T08:01:39;100268.81;;;42.41;19.92
28628;BME280;15815;46.760;19.604;2022-09-12T08:04:06;100266.41;;;36.41;25.98
28628;BME280;15815;46.760;19.604;2022-09-12T08:06:32;100261.81;;;33.41;29.56
28628;BME280;15815;46.760;19.604;2022-09-12T08:09:00;100254.19;;;31.98;30.95
28628;BME280;15815;46.760;19.604;2022-09-12T08:11:27;100252.78;;;30.17;33.80
28628;BME280;15815;46.760;19.604;2022-09-12T08:13:54;100246.88;;;29.38;34.94
28628;BME280;15815;46.760;19.604;2022-09-12T08:16:22;100250.63;;;28.81;35.06
28628;BME280;15815;46.760;19.604;2022-09-12T08:18:48;100248.72;;;28.09;35.76
28628;BME280;15815;46.760;19.604;2022-09-12T08:21:19;100240.78;;;28.37;36.87
28628;BME280;15815;46.760;19.604;2022-09-12T08:23:45;100240.09;;;28.83;36.25
28628;BME280;15815;46.760;19.604;2022-09-12T08:26:12;100245.50;;;28.40;38.15
28628;BME280;15815;46.760;19.604;2022-09-12T08:28:38;100253.41;;;28.40;38.49
28628;BME280;15815;46.760;19.604;2022-09-12T08:31:10;100243.22;;;28.11;38.03
28628;BME280;15815;46.760;19.604;2022-09-12T08:33:36;100240.63;;;27.46;38.20
28628;BME280;15815;46.760;19.604;2022-09-12T08:36:13;100231.69;;;27.44;38.57
28628;BME280;15815;46.760;19.604;2022-09-12T08:38:41;100233.28;;;27.73;38.87
28628;BME280;15815;46.760;19.604;2022-09-12T08:41:35;100237.22;;;27.47;38.78
28628;BME280;15815;46.760;19.604;2022-09-12T08:49:27;100227.91;;;26.93;38.21
28628;BME280;15815;46.760;19.604;2022-09-12T08:51:54;100233.94;;;26.95;38.69
28628;BME280;15815;46.760;19.604;2022-09-12T08:54:25;100230.63;;;27.24;38.11
28628;BME280;15815;46.760;19.604;2022-09-12T08:56:55;100226.16;;;26.36;38.55
28628;BME280;15815;46.760;19.604;2022-09-12T08:59:22;100234.94;;;26.69;39.50
28628;BME280;15815;46.760;19.604;2022-09-12T09:01:49;100237.19;;;26.48;38.79
28628;BME280;15815;46.760;19.604;2022-09-12T09:07:39;100229.94;;;26.16;38.83
28628;BME280;15815;46.760;19.604;2022-09-12T09:16:34;100214.03;;;26.91;40.62
28628;BME280;15815;46.760;19.604;2022-09-12T09:19:04;100215.81;;;26.18;38.25
28628;BME280;15815;46.760;19.604;2022-09-12T09:22:03;100211.16;;;25.83;39.02
28628;BME280;15815;46.760;19.604;2022-09-12T09:24:39;100203.56;;;25.86;39.90
28628;BME280;15815;46.760;19.604;2022-09-12T09:27:26;100210.13;;;25.86;40.19
28628;BME280;15815;46.760;19.604;2022-09-12T09:29:54;100209.72;;;26.05;39.44
28628;BME280;15815;46.760;19.604;2022-09-12T09:32:30;100212.19;;;26.29;40.19
28628;BME280;15815;46.760;19.604;2022-09-12T09:34:56;100202.34;;;26.52;40.57
28628;BME280;15815;46.760;19.604;2022-09-12T09:40:24;100208.66;;;26.02;40.19
28628;BME280;15815;46.760;19.604;2022-09-12T09:45:21;100203.25;;;26.21;40.20
28628;BME280;15815;46.760;19.604;2022-09-12T09:47:58;100201.59;;;26.03;40.71
28628;BME280;15815;46.760;19.604;2022-09-12T09:50:26;100197.28;;;26.30;39.83
28628;BME280;15815;46.760;19.604;2022-09-12T09:52:52;100198.34;;;25.84;40.11
28628;BME280;15815;46.760;19.604;2022-09-12T09:55:24;100206.78;;;25.99;40.41
28628;BME280;15815;46.760;19.604;2022-09-12T09:57:52;100201.69;;;25.77;40.73
28628;BME280;15815;46.760;19.604;2022-09-12T10:00:33;100200.81;;;26.03;39.76
28628;BME280;15815;46.760;19.604;2022-09-12T10:03:00;100186.16;;;26.06;40.16
28628;BME280;15815;46.760;19.604;2022-09-12T10:05:27;100187.47;;;26.05;40.06
28628;BME280;15815;46.760;19.604;2022-09-12T10:07:53;100183.88;;;26.27;39.35
28628;BME280;15815;46.760;19.604;2022-09-12T10:10:19;100193.09;;;26.31;36.94
28628;BME280;15815;46.760;19.604;2022-09-12T10:12:47;100187.56;;;26.28;38.56
28628;BME280;15815;46.760;19.604;2022-09-12T10:15:21;100172.22;;;26.53;38.15
28628;BME280;15815;46.760;19.604;2022-09-12T10:17:49;100178.78;;;26.48;39.31
28628;BME280;15815;46.760;19.604;2022-09-12T10:20:32;100178.16;;;26.33;37.79
28628;BME280;15815;46.760;19.604;2022-09-12T10:22:59;100185.03;;;25.93;38.27
28628;BME280;15815;46.760;19.604;2022-09-12T10:25:25;100167.50;;;25.96;38.78
28628;BME280;15815;46.760;19.604;2022-09-12T10:27:57;100174.41;;;26.10;39.02
28628;BME280;15815;46.760;19.604;2022-09-12T10:30:25;100174.16;;;26.13;38.12
28628;BME280;15815;46.760;19.604;2022-09-12T10:32:55;100175.69;;;26.03;38.41
28628;BME280;15815;46.760;19.604;2022-09-12T10:35:23;100173.25;;;25.96;39.60
28628;BME280;15815;46.760;19.604;2022-09-12T10:37:57;100167.59;;;26.07;39.68
28628;BME280;15815;46.760;19.604;2022-09-12T10:40:26;100167.59;;;26.07;39.42
28628;BME280;15815;46.760;19.604;2022-09-12T10:42:56;100166.41;;;25.88;39.65
28628;BME280;15815;46.760;19.604;2022-09-12T10:45:31;100169.56;;;25.90;39.75
28628;BME280;15815;46.760;19.604;2022-09-12T10:47:59;100167.47;;;25.91;38.22
28628;BME280;15815;46.760;19.604;2022-09-12T10:50:29;100164.31;;;25.83;38.74
28628;BME280;15815;46.760;19.604;2022-09-12T10:53:18;100164.06;;;25.49;37.90
28628;BME280;15815;46.760;19.604;2022-09-12T10:56:13;100164.53;;;25.79;39.16
28628;BME280;15815;46.760;19.604;2022-09-12T10:59:06;100166.53;;;26.05;39.53
28628;BME280;15815;46.760;19.604;2022-09-12T11:07:13;100158.94;;;26.07;38.70
28628;BME280;15815;46.760;19.604;2022-09-12T11:09:49;100163.03;;;26.38;37.80
28628;BME280;15815;46.760;19.604;2022-09-12T11:14:59;100161.75;;;26.56;37.46
28628;BME280;15815;46.760;19.604;2022-09-12T11:20:41;100159.13;;;25.98;36.99
28628;BME280;15815;46.760;19.604;2022-09-12T11:29:05;100171.44;;;25.24;38.59
28628;BME280;15815;46.760;19.604;2022-09-12T11:37:40;100158.56;;;25.51;38.41
28628;BME280;15815;46.760;19.604;2022-09-12T11:42:58;100159.41;;;25.57;40.21
28628;BME280;15815;46.760;19.604;2022-09-12T11:45:36;100158.84;;;25.91;39.94
28628;BME280;15815;46.760;19.604;2022-09-12T11:48:13;100151.91;;;26.14;39.46
28628;BME280;15815;46.760;19.604;2022-09-12T11:50:41;100159.53;;;26.28;39.09
28628;BME280;15815;46.760;19.604;2022-09-12T11:53:20;100155.69;;;26.37;39.84
28628;BME280;15815;46.760;19.604;2022-09-12T11:55:55;100154.44;;;26.60;38.37
28628;BME280;15815;46.760;19.604;2022-09-12T11:58:25;100150.97;;;26.34;37.67
28628;BME280;15815;46.760;19.604;2022-09-12T12:00:56;100157.25;;;25.84;38.84
28628;BME280;15815;46.760;19.604;2022-09-12T12:06:01;100166.41;;;25.19;40.03
28628;BME280;15815;46.760;19.604;2022-09-12T12:08:29;100165.84;;;25.15;39.86
28628;BME280;15815;46.760;19.604;2022-09-12T12:11:02;100173.75;;;25.52;39.35
28628;BME280;15815;46.760;19.604;2022-09-12T12:13:36;100166.19;;;25.54;38.38
28628;BME280;15815;46.760;19.604;2022-09-12T12:16:14;100169.25;;;25.14;39.46
28628;BME280;15815;46.760;19.604;2022-09-12T12:18:43;100171.66;;;25.21;39.40
28628;BME280;15815;46.760;19.604;2022-09-12T12:42:09;100172.47;;;24.29;41.86
28628;BME280;15815;46.760;19.604;2022-09-12T12:47:20;100185.44;;;24.39;41.93
28628;BME280;15815;46.760;19.604;2022-09-12T12:49:53;100178.38;;;24.40;41.82
28628;BME280;15815;46.760;19.604;2022-09-12T12:52:20;100184.03;;;24.55;41.39
28628;BME280;15815;46.760;19.604;2022-09-12T12:57:17;100177.78;;;24.36;41.66
28628;BME280;15815;46.760;19.604;2022-09-12T12:59:51;100172.97;;;24.48;41.85
28628;BME280;15815;46.760;19.604;2022-09-12T13:02:25;100162.63;;;24.56;41.84
28628;BME280;15815;46.760;19.604;2022-09-12T13:04:52;100167.41;;;24.39;41.82
28628;BME280;15815;46.760;19.604;2022-09-12T13:07:26;100170.91;;;24.28;41.91
28628;BME280;15815;46.760;19.604;2022-09-12T13:09:54;100165.63;;;24.26;41.33
28628;BME280;15815;46.760;19.604;2022-09-12T13:12:24;100168.09;;;24.33;41.68
28628;BME280;15815;46.760;19.604;2022-09-12T13:14:56;100172.97;;;24.27;41.69
28628;BME280;15815;46.760;19.604;2022-09-12T13:17:42;100174.25;;;24.06;41.80
28628;BME280;15815;46.760;19.604;2022-09-12T13:22:39;100165.34;;;24.04;42.37
28628;BME280;15815;46.760;19.604;2022-09-12T13:30:39;100183.03;;;23.82;43.39
28628;BME280;15815;46.760;19.604;2022-09-12T13:33:33;100181.38;;;23.76;43.51
28628;BME280;15815;46.760;19.604;2022-09-12T13:39:12;100177.16;;;23.71;43.47
28628;BME280;15815;46.760;19.604;2022-09-12T13:44:23;100172.03;;;23.46;44.83
28628;BME280;15815;46.760;19.604;2022-09-12T13:46:51;100166.34;;;23.31;45.15
28628;BME280;15815;46.760;19.604;2022-09-12T13:49:31;100171.75;;;23.43;44.24
28628;BME280;15815;46.760;19.604;2022-09-12T13:52:03;100177.25;;;23.47;45.73
28628;BME280;15815;46.760;19.604;2022-09-12T13:54:30;100169.25;;;23.51;45.30
28628;BME280;15815;46.760;19.604;2022-09-12T13:56:57;100178.50;;;23.76;44.87
28628;BME280;15815;46.760;19.604;2022-09-12T13:59:24;100175.56;;;23.70;44.90
28628;BME280;15815;46.760;19.604;2022-09-12T14:01:49;100167.81;;;24.11;44.61
28628;BME280;15815;46.760;19.604;2022-09-12T14:04:23;100164.22;;;24.16;44.70
28628;BME280;15815;46.760;19.604;2022-09-12T14:07:17;100175.44;;;23.79;44.59
28628;BME280;15815;46.760;19.604;2022-09-12T14:09:45;100181.16;;;23.79;44.89
28628;BME280;15815;46.760;19.604;2022-09-12T14:12:37;100170.59;;;23.85;45.42
28628;BME280;15815;46.760;19.604;2022-09-12T14:15:16;100164.34;;;23.87;44.64
28628;BME280;15815;46.760;19.604;2022-09-12T14:17:48;100166.00;;;23.93;44.39
28628;BME280;15815;46.760;19.604;2022-09-12T14:20:17;100169.88;;;24.11;44.22
28628;BME280;15815;46.760;19.604;2022-09-12T14:22:44;100155.50;;;23.90;44.53
28628;BME280;15815;46.760;19.604;2022-09-12T14:25:15;100163.94;;;23.79;44.36
28628;BME280;15815;46.760;19.604;2022-09-12T14:27:44;100149.28;;;23.92;44.55
28628;BME280;15815;46.760;19.604;2022-09-12T14:30:25;100153.78;;;23.98;43.81
28628;BME280;15815;46.760;19.604;2022-09-12T14:35:38;100160.47;;;23.90;43.52
28628;BME280;15815;46.760;19.604;2022-09-12T14:38:08;100169.41;;;23.77;43.69
28628;BME280;15815;46.760;19.604;2022-09-12T14:41:19;100164.09;;;23.70;43.08
28628;BME280;15815;46.760;19.604;2022-09-12T14:43:40;100163.94;;;23.59;43.77
28628;BME280;15815;46.760;19.604;2022-09-12T14:46:27;100161.28;;;23.26;43.85
28628;BME280;15815;46.760;19.604;2022-09-12T14:48:58;100160.06;;;23.47;42.79
28628;BME280;15815;46.760;19.604;2022-09-12T14:51:33;100151.38;;;23.41;43.39
28628;BME280;15815;46.760;19.604;2022-09-12T14:54:00;100148.22;;;23.25;43.95
28628;BME280;15815;46.760;19.604;2022-09-12T14:56:56;100143.44;;;23.01;44.40
28628;BME280;15815;46.760;19.604;2022-09-12T15:02:18;100145.47;;;23.16;44.04
28628;BME280;15815;46.760;19.604;2022-09-12T15:04:53;100137.97;;;23.03;44.88
28628;BME280;15815;46.760;19.604;2022-09-12T15:07:33;100129.56;;;23.15;44.72
28628;BME280;15815;46.760;19.604;2022-09-12T15:10:01;100130.66;;;23.02;44.57
28628;BME280;15815;46.760;19.604;2022-09-12T15:12:27;100134.50;;;23.14;44.93